createdAt,value
2018-06-04T00:02:32.663Z,6.80
2018-06-04T00:07:36.335Z,6.80
2018-06-04T00:12:39.582Z,7.00
2018-06-04T00:17:42.763Z,6.70
2018-06-04T00:22:45.971Z,6.70
2018-06-04T00:27:49.522Z,6.00
2018-06-04T00:32:52.732Z,6.97
2018-06-04T00:37:55.974Z,7.30
2018-06-04T00:42:59.254Z,7.03
2018-06-04T00:48:02.532Z,6.97
2018-06-04T00:53:05.844Z,6.90
2018-06-04T00:58:09.082Z,7.13
2018-06-04T01:03:12.582Z,6.87
2018-06-04T01:08:15.841Z,6.90
2018-06-04T01:13:19.074Z,5.90
2018-06-04T01:18:22.614Z,7.13
2018-06-04T01:23:25.848Z,6.60
2018-06-04T01:28:29.038Z,6.90
2018-06-04T01:33:33.443Z,6.07
2018-06-04T01:38:36.764Z,6.60
2018-06-04T01:43:40.223Z,6.73
2018-06-04T01:48:43.507Z,7.17
2018-06-04T01:53:47.125Z,6.40
2018-06-04T01:58:50.349Z,6.80
2018-06-04T02:03:53.591Z,6.60
2018-06-04T02:08:56.819Z,6.50
2018-06-04T02:14:00.218Z,7.00
2018-06-04T02:19:03.404Z,6.27
2018-06-04T02:24:06.674Z,6.60
2018-06-04T02:29:09.912Z,6.90
2018-06-04T02:34:13.152Z,6.93
2018-06-04T02:39:16.398Z,6.73
2018-06-04T02:44:19.777Z,5.97
2018-06-04T02:49:22.998Z,5.80
2018-06-04T02:54:26.303Z,6.13
2018-06-04T02:59:29.506Z,6.87
2018-06-04T03:04:32.715Z,6.03
2018-06-04T03:09:35.962Z,6.30
2018-06-04T03:14:39.154Z,6.83
2018-06-04T03:19:42.374Z,6.20
2018-06-04T03:24:45.543Z,6.70
2018-06-04T03:29:51.482Z,5.93
2018-06-04T03:34:54.744Z,5.80
2018-06-04T03:39:57.933Z,6.00
2018-06-04T03:45:01.548Z,6.47
2018-06-04T03:50:04.750Z,6.50
2018-06-04T03:55:07.968Z,5.93
2018-06-04T04:00:11.559Z,6.30
2018-06-04T04:05:14.992Z,6.07
2018-06-04T04:10:18.380Z,5.90
2018-06-04T04:15:21.591Z,7.43
2018-06-04T04:20:25.311Z,6.47
2018-06-04T04:25:28.822Z,7.30
2018-06-04T04:30:32.036Z,7.57
2018-06-04T04:35:36.010Z,6.73
2018-06-04T04:40:39.562Z,6.33
2018-06-04T04:45:42.858Z,6.10
2018-06-04T04:50:46.128Z,6.67
2018-06-04T04:55:49.353Z,6.50
2018-06-04T05:00:52.558Z,6.17
2018-06-04T05:05:55.852Z,6.10
2018-06-04T05:10:59.226Z,6.87
2018-06-04T05:16:03.103Z,5.77
2018-06-04T05:21:06.328Z,6.20
2018-06-04T05:26:09.755Z,6.30
2018-06-04T05:31:13.361Z,5.97
2018-06-04T05:36:16.691Z,5.90
2018-06-04T05:41:19.987Z,5.77
2018-06-04T05:46:23.467Z,6.47
2018-06-04T05:51:26.861Z,6.20
2018-06-04T05:56:30.081Z,6.00
2018-06-04T06:01:33.625Z,5.73
2018-06-04T06:06:36.826Z,6.37
2018-06-04T06:11:40.082Z,6.57
2018-06-04T06:16:43.345Z,5.70
2018-06-04T06:21:46.729Z,6.53
2018-06-04T06:26:50.151Z,5.93
2018-06-04T06:31:53.366Z,6.30
2018-06-04T06:36:56.973Z,6.60
2018-06-04T06:42:00.289Z,5.60
2018-06-04T06:47:03.565Z,6.13
2018-06-04T06:52:06.846Z,6.63
2018-06-04T06:57:10.151Z,6.00
2018-06-04T07:02:13.405Z,5.63
2018-06-04T07:07:16.647Z,6.37
2018-06-04T07:12:19.926Z,5.60
2018-06-04T07:17:23.129Z,6.70
2018-06-04T07:22:26.513Z,5.93
2018-06-04T07:27:29.814Z,6.70
2018-06-04T07:32:32.993Z,6.50
2018-06-04T07:37:36.562Z,5.50
2018-06-04T07:42:40.055Z,7.00
2018-06-04T07:47:43.282Z,5.67
2018-06-04T07:52:46.867Z,6.67
2018-06-04T07:57:50.298Z,5.77
2018-06-04T08:02:54.184Z,5.83
2018-06-04T08:07:57.614Z,6.20
2018-06-04T08:13:00.827Z,6.43
2018-06-04T08:18:04.084Z,5.90
2018-06-04T08:23:07.253Z,7.10
2018-06-04T08:28:10.623Z,6.27
2018-06-04T08:33:13.975Z,5.73
2018-06-04T08:38:17.698Z,6.20
2018-06-04T08:43:20.924Z,6.43
2018-06-04T08:48:24.675Z,5.63
2018-06-04T08:53:28.143Z,6.03
2018-06-04T08:58:31.345Z,5.80
2018-06-04T09:03:34.513Z,5.63
2018-06-04T09:08:38.076Z,5.70
2018-06-04T09:13:41.392Z,5.40
2018-06-04T09:18:44.573Z,5.50
2018-06-04T09:23:47.815Z,6.40
2018-06-04T09:28:51.027Z,5.70
2018-06-04T09:33:54.335Z,5.50
2018-06-04T09:38:57.701Z,5.40
2018-06-04T09:44:01.371Z,5.10
2018-06-04T09:49:04.862Z,5.30
2018-06-04T09:54:08.187Z,5.80
2018-06-04T09:59:11.534Z,5.57
2018-06-04T10:04:14.723Z,5.17
2018-06-04T10:09:18.164Z,5.00
2018-06-04T10:14:21.531Z,5.23
2018-06-04T10:19:24.819Z,5.50
2018-06-04T10:24:28.078Z,5.47
2018-06-04T10:29:31.444Z,5.33
2018-06-04T10:34:34.823Z,5.53
2018-06-04T10:39:38.030Z,5.00
2018-06-04T10:44:41.371Z,5.53
2018-06-04T10:49:44.615Z,5.43
2018-06-04T10:54:47.938Z,6.13
2018-06-04T10:59:51.462Z,5.80
2018-06-04T11:04:54.753Z,5.20
2018-06-04T11:09:57.969Z,5.07
2018-06-04T11:15:01.150Z,5.70
2018-06-04T11:20:04.364Z,5.50
2018-06-04T11:25:08.004Z,5.60
2018-06-04T11:30:11.462Z,5.90
2018-06-04T11:35:14.671Z,5.50
2018-06-04T11:40:17.898Z,5.93
2018-06-04T11:45:21.106Z,5.70
2018-06-04T11:50:24.529Z,5.50
2018-06-04T11:55:28.389Z,5.33
2018-06-04T12:00:31.617Z,4.80
2018-06-04T12:05:34.801Z,6.03
2018-06-04T12:10:38.126Z,4.80
2018-06-04T12:15:41.409Z,4.97
2018-06-04T12:20:44.585Z,5.67
2018-06-04T12:25:47.973Z,6.27
2018-06-04T12:30:51.606Z,6.23
2018-06-04T12:35:54.805Z,5.07
2018-06-04T12:40:58.792Z,5.87
2018-06-04T12:46:02.118Z,6.03
2018-06-04T12:51:05.384Z,5.50
2018-06-04T12:56:08.682Z,5.57
2018-06-04T13:01:11.967Z,5.63
2018-06-04T13:06:15.461Z,5.30
2018-06-04T13:11:18.677Z,4.90
2018-06-04T13:16:21.984Z,5.90
2018-06-04T13:21:25.266Z,5.50
2018-06-04T13:26:28.563Z,5.80
2018-06-04T13:31:31.756Z,5.43
2018-06-04T13:36:35.336Z,5.93
2018-06-04T13:41:38.614Z,5.93
2018-06-04T13:46:41.855Z,5.60
2018-06-04T13:51:45.399Z,5.53
2018-06-04T13:56:48.596Z,5.27
2018-06-04T14:01:51.815Z,5.30
2018-06-04T14:06:55.126Z,5.50
2018-06-04T14:11:58.474Z,5.90
2018-06-04T14:17:01.836Z,5.50
2018-06-04T14:22:05.357Z,5.10
2018-06-04T14:27:08.657Z,5.10
2018-06-04T14:32:11.869Z,4.60
2018-06-04T14:37:15.541Z,5.33
2018-06-04T14:42:19.021Z,5.17
2018-06-04T14:47:22.225Z,4.60
2018-06-04T14:52:25.467Z,5.17
2018-06-04T14:57:29.233Z,5.50
2018-06-04T15:02:32.497Z,5.57
2018-06-04T15:07:35.783Z,4.90
2018-06-04T15:12:39.099Z,5.00
2018-06-04T15:17:42.257Z,5.10
2018-06-04T15:22:45.467Z,5.17
2018-06-04T15:27:48.722Z,5.23
2018-06-04T15:32:51.932Z,5.50
2018-06-04T15:37:55.279Z,5.70
2018-06-04T15:42:58.593Z,4.93
2018-06-04T15:48:02.222Z,5.30
2018-06-04T15:53:05.549Z,5.47
2018-06-04T15:58:08.829Z,4.90
2018-06-04T16:03:12.053Z,4.43
2018-06-04T16:08:16.098Z,5.33
2018-06-04T16:13:19.342Z,5.13
2018-06-04T16:18:22.606Z,5.20
2018-06-04T16:23:26.016Z,5.40
2018-06-04T16:28:29.216Z,4.87
2018-06-04T16:33:32.646Z,4.90
2018-06-04T16:38:36.369Z,4.90
2018-06-04T16:43:40.226Z,5.03
2018-06-04T16:48:43.568Z,5.07
2018-06-04T16:53:46.836Z,4.50
2018-06-04T16:58:50.157Z,4.87
2018-06-04T17:03:53.446Z,4.53
2018-06-04T17:08:56.828Z,4.63
2018-06-04T17:14:00.854Z,4.77
2018-06-04T17:19:04.404Z,5.27
2018-06-04T17:24:07.997Z,5.00
2018-06-04T17:29:11.989Z,4.97
2018-06-04T17:34:15.274Z,4.90
2018-06-04T17:39:18.612Z,5.40
2018-06-04T17:44:22.085Z,4.83
2018-06-04T17:49:25.367Z,4.27
2018-06-04T17:54:28.602Z,5.10
2018-06-04T17:59:31.928Z,5.77
2018-06-04T18:04:35.246Z,5.37
2018-06-04T18:09:38.523Z,5.27
2018-06-04T18:14:43.058Z,4.63
2018-06-04T18:19:46.472Z,4.50
2018-06-04T18:24:49.677Z,4.93
2018-06-04T18:29:53.638Z,4.80
2018-06-04T18:34:57.152Z,5.23
2018-06-04T18:40:00.563Z,5.27
2018-06-04T18:45:04.742Z,5.00
2018-06-04T18:50:08.064Z,4.93
2018-06-04T18:55:11.463Z,4.63
2018-06-04T19:00:15.136Z,4.83
2018-06-04T19:05:18.495Z,4.90
2018-06-04T19:10:21.804Z,4.90
2018-06-04T19:15:25.103Z,5.30
2018-06-04T19:20:28.938Z,4.57
2018-06-04T19:25:32.299Z,5.00
2018-06-04T19:30:35.574Z,4.53
2018-06-04T19:35:38.814Z,4.53
2018-06-04T19:40:42.345Z,4.63
2018-06-04T19:45:45.590Z,5.03
2018-06-04T19:50:48.940Z,5.17
2018-06-04T19:55:52.372Z,4.80
2018-06-04T20:00:55.672Z,5.03
2018-06-04T20:05:59.957Z,4.70
2018-06-04T20:11:03.161Z,4.80
2018-06-04T20:16:06.414Z,4.40
2018-06-04T20:21:09.658Z,5.37
2018-06-04T20:26:12.993Z,5.00
2018-06-04T20:31:16.498Z,5.40
2018-06-04T20:36:19.833Z,5.93
2018-06-04T20:41:23.100Z,5.10
2018-06-04T20:46:26.351Z,5.50
2018-06-04T20:51:30.496Z,5.17
2018-06-04T20:56:33.918Z,5.10
2018-06-04T21:01:37.278Z,6.13
2018-06-04T21:06:40.595Z,5.53
2018-06-04T21:11:43.971Z,5.03
2018-06-04T21:16:47.567Z,5.50
2018-06-04T21:21:50.940Z,5.77
2018-06-04T21:26:54.174Z,5.50
2018-06-04T21:31:57.607Z,5.70
2018-06-04T21:37:00.835Z,5.50
2018-06-04T21:42:04.539Z,6.10
2018-06-04T21:47:08.361Z,5.53
2018-06-04T21:52:11.703Z,7.23
2018-06-04T21:57:15.082Z,6.07
2018-06-04T22:02:18.305Z,5.97
2018-06-04T22:07:21.529Z,5.33
2018-06-04T22:12:24.922Z,5.33
2018-06-04T22:17:28.445Z,6.07
2018-06-04T22:22:31.656Z,6.20
2018-06-04T22:27:35.149Z,6.37
2018-06-04T22:32:38.375Z,6.53
2018-06-04T22:37:42.082Z,6.07
2018-06-04T22:42:45.431Z,6.17
2018-06-04T22:47:48.744Z,6.37
2018-06-04T22:52:52.340Z,6.70
2018-06-04T22:57:55.690Z,6.40
2018-06-04T23:02:58.876Z,6.00
2018-06-04T23:08:02.257Z,6.20
2018-06-04T23:13:05.641Z,6.23
2018-06-04T23:18:08.906Z,6.00
2018-06-04T23:23:12.099Z,6.80
2018-06-04T23:28:15.326Z,6.03
2018-06-04T23:33:18.791Z,6.00
2018-06-04T23:38:22.138Z,6.87
2018-06-04T23:43:25.372Z,5.80
2018-06-04T23:48:28.883Z,6.10
2018-06-04T23:53:32.032Z,6.40
2018-06-04T23:58:35.200Z,6.33
